Flight Track Log - Related Links

Times and Time Zones

All times are in EDT time to prevent confusion due to time zone crossing. See the KFA281 flight status page for this flight to view local times or setup timezone preferences in your user account.

Time Position Orientation Groundspeed Altitude Reporting Facility
EDT Latitude Longitude Course Direction KTS MPH feet Rate Location/Type
Fri 11:22:32 PM 44.8912 -64.3605 89° East  Level FlightAware Approximate
Fri 11:23:32 PM 44.8800 -64.5138 88° East  Level FlightAware Approximate
Fri 11:24:32 PM 44.8644 -64.6674 87° East  Level FlightAware Approximate
Fri 11:25:32 PM 44.8499 -64.8212 87° East  Level FlightAware Approximate
Fri 11:26:32 PM 44.8399 -64.9752 86° East  Level FlightAware Approximate
Fri 11:27:32 PM 44.8248 -65.1288 86° East  Level FlightAware Approximate
Fri 11:28:32 PM 44.8041 -65.2810 85° East  Level FlightAware Approximate
Fri 11:29:15 PM 44.9000 -63.4833 292° West 170 196 1,700  Level Moncton Center
Fri 11:34:15 PM 45.0333 -63.9500 290° West 320 368 10,400 1,600 Climbing Moncton Center
Fri 11:35:15 PM 45.0667 -64.0833 288° West 350 403 11,300 1,400 Climbing Moncton Center
Fri 11:36:15 PM 45.1000 -64.2333 262° West 380 437 13,200 1,950 Climbing Moncton Center
Fri 11:37:15 PM 45.0833 -64.4000 270° West 380 437 15,200 1,550 Climbing Moncton Center
Fri 11:38:15 PM 45.0833 -64.5333 270° West 390 449 16,300 1,150 Climbing Moncton Center
Fri 11:39:15 PM 45.0833 -64.7000 262° West 400 460 17,500 900 Climbing Moncton Center
Fri 11:40:15 PM 45.0667 -64.8667 262° West 420 483 18,100 950 Climbing Moncton Center
Fri 11:41:15 PM 45.0500 -65.0333 270° West 440 506 19,400 1,450 Climbing Moncton Center
Fri 11:42:15 PM 45.0500 -65.2000 270° West 430 495 21,000 1,400 Climbing Moncton Center
Fri 11:43:15 PM 45.0500 -65.3833 262° West 430 495 22,200 1,100 Climbing Moncton Center
Fri 11:44:15 PM 45.0333 -65.5500 270° West 440 506 23,200 1,100 Climbing Moncton Center
Fri 11:45:15 PM 45.0333 -65.7167 262° West 440 506 24,400 1,300 Climbing Moncton Center
Fri 11:46:15 PM 45.0167 -65.8833 270° West 440 506 25,800 1,250 Climbing Moncton Center
Fri 11:47:15 PM 45.0167 -66.0500 257° West 430 495 26,900 950 Climbing Moncton Center
Fri 11:48:15 PM 44.9833 -66.2500 270° West 430 495 27,700 950 Climbing Moncton Center
Fri 11:49:15 PM 44.9833 -66.4000 270° West 440 506 28,800 1,150 Climbing Moncton Center
Fri 11:50:15 PM 44.9833 -66.5667 262° West 430 495 30,000 1,100 Climbing Moncton Center
Fri 11:51:15 PM 44.9667 -66.7333 270° West 430 495 31,000 800 Climbing Moncton Center
Fri 11:52:15 PM 44.9667 -66.9000 254° West 430 495 31,600 500 Climbing Moncton Center
Fri 11:53:15 PM 44.9333 -67.0667 272° West 430 495 32,000 200 Climbing Moncton Center
Fri 11:54:15 PM 44.9378 -67.2339 263° West 438 504 32,000  Level Boston Center
Fri 11:55:15 PM 44.9228 -67.4083 260° West 444 511 32,000  Level Boston Center
Fri 11:56:15 PM 44.9011 -67.5861 264° West 456 525 32,000  Level Boston Center
Fri 11:57:15 PM 44.8872 -67.7572 261° West 456 525 32,000  Level Boston Center
Fri 11:58:15 PM 44.8672 -67.9347 258° West 456 525 32,000  Level Boston Center
Fri 11:59:15 PM 44.8425 -68.1036 258° West 450 518 32,000  Level Boston Center
Sat 12:00:16 AM 44.8175 -68.2753 257° West 450 518 32,000  Level Boston Center
Sat 12:01:15 AM 44.7903 -68.4442 258° West 450 518 32,000  Level Boston Center
Sat 12:02:15 AM 44.7644 -68.6125 258° West 450 518 32,000  Level Boston Center
Sat 12:03:15 AM 44.7389 -68.7808 259° West 450 518 32,000  Level Boston Center
Sat 12:04:15 AM 44.7169 -68.9458 260° West 450 518 32,000  Level Boston Center
Sat 12:05:15 AM 44.6931 -69.1314 258° West 450 518 32,000  Level Boston Center
Sat 12:06:15 AM 44.6686 -69.2992 258° West 445 512 32,000  Level Boston Center
Sat 12:07:15 AM 44.6439 -69.4669 259° West 445 512 32,000  Level Boston Center
Sat 12:08:15 AM 44.6211 -69.6342 259° West 445 512 32,000  Level Boston Center
Sat 12:09:15 AM 44.5978 -69.8017 259° West 440 506 32,000  Level Boston Center
Sat 12:10:15 AM 44.5744 -69.9658 258° West 440 506 32,000  Level Boston Center
Sat 12:11:15 AM 44.5486 -70.1300 259° West 434 499 32,000  Level Boston Center
Sat 12:12:15 AM 44.5286 -70.2736 258° West 429 494 32,000  Level Boston Center
Sat 12:13:16 AM 44.5022 -70.4406 258° West 429 494 32,000  Level Boston Center
Sat 12:14:16 AM 44.4781 -70.6042 256° West 435 501 32,000  Level Boston Center
Sat 12:15:16 AM 44.4492 -70.7708 257° West 435 501 32,000  Level Boston Center
Sat 12:16:15 AM 44.4222 -70.9344 257° West 435 501 32,000  Level Boston Center
Sat 12:17:16 AM 44.3950 -71.0950 258° West 430 495 32,000  Level Boston Center
Sat 12:18:15 AM 44.3658 -71.2786 257° West 430 495 32,000  Level Boston Center
Sat 12:19:15 AM 44.3383 -71.4444 257° West 435 501 32,000  Level Boston Center
Sat 12:20:16 AM 44.3106 -71.6103 258° West 435 501 32,000  Level Boston Center
Sat 12:21:15 AM 44.2844 -71.7761 259° West 435 501 32,000  Level Boston Center
Sat 12:22:15 AM 44.2603 -71.9414 258° West 435 501 32,000  Level Boston Center
Sat 12:23:15 AM 44.2339 -72.1069 258° West 435 501 32,000  Level Boston Center
Sat 12:24:15 AM 44.2092 -72.2750 257° West 435 501 32,000  Level Boston Center
Sat 12:25:16 AM 44.1822 -72.4372 257° West 435 501 32,000  Level Boston Center
Sat 12:26:15 AM 44.1550 -72.6050 258° West 441 507 32,000  Level Boston Center
Sat 12:27:15 AM 44.1297 -72.7697 258° West 441 507 32,000  Level Boston Center
Sat 12:28:16 AM 44.1039 -72.9344 257° West 441 507 32,000  Level Boston Center
Sat 12:29:15 AM 44.0761 -73.1019 256° West 446 513 32,000  Level Boston Center
Sat 12:30:15 AM 44.0458 -73.2661 258° West 451 519 32,000  Level Boston Center
Sat 12:31:15 AM 44.0194 -73.4333 256° West 451 519 32,000  Level Boston Center
Sat 12:32:15 AM 43.9889 -73.6000 255° West 451 519 32,000  Level Boston Center
Sat 12:33:15 AM 43.9578 -73.7608 255° West 446 513 32,000  Level Boston Center
Sat 12:34:16 AM 43.9244 -73.9275 255° West 454 522 32,000  Level Boston Center
Sat 12:35:15 AM 43.8911 -74.0967 255° West 454 522 32,000  Level Boston Center
Sat 12:36:16 AM 43.8594 -74.2597 257° West 454 522 32,000  Level Boston Center
Sat 12:37:15 AM 43.8314 -74.4289 256° West 454 522 32,000  Level Boston Center
Sat 12:38:15 AM 43.8014 -74.5947 256° West 449 517 32,000  Level Boston Center
Sat 12:39:15 AM 43.7711 -74.7633 256° West 449 517 32,000  Level Boston Center
Sat 12:40:15 AM 43.7406 -74.9289 257° West 449 517 32,000  Level Boston Center
Sat 12:41:15 AM 43.7117 -75.0972 255° West 449 517 32,000  Level Boston Center
Sat 12:42:15 AM 43.6806 -75.2622 257° West 449 517 32,000  Level Boston Center
Sat 12:43:16 AM 43.6514 -75.4303 256° West 449 517 32,000  Level Boston Center
Sat 12:44:15 AM 43.6244 -75.5839 253° West 449 517 32,000  Level Boston Center
Sat 12:45:15 AM 43.5883 -75.7483 253° West 449 517 32,000  Level Boston Center
Sat 12:46:15 AM 43.5522 -75.9125 253° West 449 517 32,000  Level Boston Center
Sat 12:49:23 AM 43.4328 -76.4492 253° West 460 529 32,000  Level Cleveland Center
Sat 12:50:23 AM 43.3967 -76.6144 254° West 454 522 32,000  Level Cleveland Center
Sat 12:51:23 AM 43.3628 -76.7794 255° West 444 511 32,000  Level Cleveland Center
Sat 12:52:23 AM 43.3306 -76.9469 254° West 461 531 32,000  Level Cleveland Center
Sat 12:53:23 AM 43.2997 -77.0944 254° West 461 531 32,000  Level Cleveland Center
Sat 12:54:23 AM 43.2650 -77.2644 257° West 461 531 32,000  Level Cleveland Center
Sat 12:55:23 AM 43.2364 -77.4314 256° West 461 531 32,000  Level Cleveland Center
Sat 12:56:23 AM 43.2056 -77.6039 257° West 461 531 32,000  Level Cleveland Center
Sat 12:57:23 AM 43.1764 -77.7733 256° West 456 525 32,000  Level Cleveland Center
Sat 12:58:23 AM 43.1450 -77.9425 255° West 456 525 32,000  Level Cleveland Center
Sat 12:59:23 AM 43.1111 -78.1119 260° West 456 525 32,000  Level Cleveland Center
Sat 01:00:23 AM 43.0897 -78.2806 272° West 456 525 32,000 -1,750 Level Cleveland Center
Sat 01:01:23 AM 43.0953 -78.4594 274° West 459 528 28,500 -3,650 Descending Cleveland Center
Sat 01:02:23 AM 43.1047 -78.6525 275° West 459 528 24,700 -4,100 Descending Cleveland Center
Sat 01:03:23 AM 43.1158 -78.8200 276° West 459 528 20,300 -4,150 Descending Cleveland Center
Sat 01:04:23 AM 43.1286 -78.9817 273° West 446 513 16,400 -3,600 Descending Cleveland Center
Sat 01:05:23 AM 43.1347 -79.1381 270° West 431 496 13,100 -3,150 Descending Cleveland Center
Sat 01:06:23 AM 43.1342 -79.2717 271° West 379 436 10,100 -2,700 Descending Cleveland Center
Sat 01:07:23 AM 43.1356 -79.3911 267° West 335 386 7,700 -2,400 Descending Cleveland Center
Sat 01:08:23 AM 43.1322 -79.4853 271° West 293 337 5,300 -1,950 Descending Cleveland Center
Sat 01:09:23 AM 43.1333 -79.5847 269° West 277 319 3,800 -1,150 Descending Cleveland Center
Sat 01:10:23 AM 43.1319 -79.6956 271° West 266 306 3,000 -616 Descending Cleveland Center
Sat 01:11:49 AM 43.1333 -79.8000 289° West 240 276 2,300 -699 Descending Toronto Center
Sat 01:12:49 AM 43.1500 -79.8667 289° West 190 219 1,300 -750 Descending Toronto Center
Sat 01:13:49 AM 43.1667 -79.9333 289° West 160 184 800 -500 Descending Toronto Center

Login

Don't have an account? Register now (free) for customized features, flight alerts, and more!